Time;durP1;ratioP1;P1;durP2;ratioP2;P2;SDS_P1;SDS_P2;PMS_P1;PMS_P2;Temp;Humidity;BMP_temperature;BMP_pressure;BME280_temperature;BME280_humidity;BME280_pressure;Samples;Min_cycle;Max_cycle;Signal;HPM_P1;HPM_P2
2023/12/23 00:01:29;;;;;;;1.67;0.30;;;;;;;1.25;100.00;98980.31;5073117;28;20804;-69
2023/12/23 00:03:58;;;;;;;1.60;0.30;;;;;;;1.29;100.00;98992.03;5073623;28;20481;-69
2023/12/23 00:06:24;;;;;;;1.60;0.30;;;;;;;1.24;100.00;98984.84;5077100;28;20448;-69
2023/12/23 00:08:50;;;;;;;1.70;0.40;;;;;;;1.34;100.00;98991.19;5076910;28;20445;-69
2023/12/23 00:11:17;;;;;;;1.60;0.30;;;;;;;1.31;100.00;99007.72;5076527;28;20207;-70
2023/12/23 00:13:44;;;;;;;1.63;0.30;;;;;;;1.30;100.00;98992.81;5076971;28;20489;-70
2023/12/23 00:16:12;;;;;;;1.60;0.30;;;;;;;1.34;100.00;99004.50;5076448;28;21020;-69
2023/12/23 00:18:38;;;;;;;1.60;0.30;;;;;;;1.31;100.00;99007.72;5076617;28;20443;-70
2023/12/23 00:21:05;;;;;;;1.60;0.30;;;;;;;1.31;100.00;99015.72;5077053;28;20855;-70
2023/12/23 00:23:31;;;;;;;1.60;0.30;;;;;;;1.30;100.00;99014.16;5076617;28;20796;-70
2023/12/23 00:25:58;;;;;;;1.63;0.30;;;;;;;1.27;100.00;99012.81;5076587;28;20476;-70
2023/12/23 00:28:25;;;;;;;1.70;0.30;;;;;;;1.32;100.00;99009.31;5076576;28;20511;-70
2023/12/23 00:30:51;;;;;;;1.60;0.30;;;;;;;1.32;100.00;99018.09;5076546;28;20451;-69
2023/12/23 00:33:19;;;;;;;1.70;0.30;;;;;;;1.38;100.00;99022.34;5076824;28;20819;-69
2023/12/23 00:35:46;;;;;;;1.60;0.30;;;;;;;1.41;100.00;99020.97;5076685;28;20450;-69
2023/12/23 00:38:12;;;;;;;1.63;0.30;;;;;;;1.47;100.00;99035.88;5076399;28;20520;-69
2023/12/23 00:40:39;;;;;;;1.70;0.30;;;;;;;1.45;100.00;99054.81;5075995;28;21010;-69
2023/12/23 00:43:05;;;;;;;1.60;0.30;;;;;;;1.42;100.00;99052.72;5076284;28;20473;-69
2023/12/23 00:45:32;;;;;;;1.67;0.30;;;;;;;1.44;100.00;99058.56;5076301;28;20485;-69
2023/12/23 00:47:59;;;;;;;1.60;0.30;;;;;;;1.43;100.00;99059.66;5076277;28;20444;-69
2023/12/23 00:50:27;;;;;;;1.70;0.40;;;;;;;1.47;100.00;99078.56;5076228;28;20810;-69
2023/12/23 00:52:53;;;;;;;1.70;0.30;;;;;;;1.43;100.00;99081.00;5076150;28;20528;-69
2023/12/23 00:55:20;;;;;;;1.70;0.40;;;;;;;1.48;100.00;99083.63;5076161;28;20456;-69
2023/12/23 00:57:46;;;;;;;1.70;0.37;;;;;;;1.52;100.00;99081.19;5076274;28;20443;-69
2023/12/23 01:00:14;;;;;;;1.70;0.40;;;;;;;1.55;100.00;99102.00;5075684;28;20525;-69
2023/12/23 01:02:40;;;;;;;1.70;0.30;;;;;;;1.55;100.00;99106.50;5075684;28;20441;-69
2023/12/23 01:05:09;;;;;;;1.63;0.30;;;;;;;1.58;100.00;99122.75;5075701;28;20485;-69
2023/12/23 01:07:37;;;;;;;1.70;0.40;;;;;;;1.60;100.00;99117.16;5076096;28;20441;-70
2023/12/23 01:10:03;;;;;;;1.70;0.30;;;;;;;1.57;100.00;99129.19;5075821;28;20975;-69
2023/12/23 01:12:29;;;;;;;1.63;0.30;;;;;;;1.57;100.00;99145.19;5075775;28;20468;-70
2023/12/23 01:14:56;;;;;;;2.03;0.83;;;;;;;1.61;100.00;99142.78;5075384;28;20965;-70
2023/12/23 01:17:22;;;;;;;1.70;0.30;;;;;;;1.59;100.00;99156.38;5074333;28;20203;-69
2023/12/23 01:19:49;;;;;;;1.67;0.30;;;;;;;1.53;100.00;99168.16;5075710;28;20472;-70
2023/12/23 01:22:15;;;;;;;1.60;0.30;;;;;;;1.51;100.00;99178.31;5075375;28;20945;-71
2023/12/23 01:24:43;;;;;;;1.70;0.30;;;;;;;1.57;100.00;99176.41;5075311;28;20961;-71
2023/12/23 01:27:10;;;;;;;1.70;0.30;;;;;;;1.52;100.00;99188.72;5075827;28;20520;-70
2023/12/23 01:29:37;;;;;;;1.70;0.40;;;;;;;1.55;100.00;99198.03;5075460;28;20843;-70
2023/12/23 01:32:04;;;;;;;1.63;0.30;;;;;;;1.58;100.00;99196.69;5075395;28;20862;-70
2023/12/23 01:34:30;;;;;;;1.80;0.77;;;;;;;1.58;100.00;99208.16;5075315;28;20465;-70
2023/12/23 01:36:57;;;;;;;1.80;0.40;;;;;;;1.54;100.00;99230.31;5075688;28;20468;-70
2023/12/23 01:39:23;;;;;;;1.70;0.40;;;;;;;1.54;100.00;99222.31;5074962;28;20921;-70
2023/12/23 01:41:51;;;;;;;1.67;0.30;;;;;;;1.49;100.00;99220.47;5075261;28;20802;-70
2023/12/23 01:44:18;;;;;;;1.70;0.30;;;;;;;1.49;100.00;99225.81;5074820;28;20547;-70
2023/12/23 01:46:46;;;;;;;1.70;0.40;;;;;;;1.54;100.00;99238.31;5075453;28;20844;-70
2023/12/23 01:49:13;;;;;;;1.70;0.30;;;;;;;1.56;100.00;99238.88;5074735;28;20484;-70
2023/12/23 01:51:40;;;;;;;1.70;0.30;;;;;;;1.56;100.00;99252.22;5075632;28;20445;-70
2023/12/23 01:54:07;;;;;;;1.70;0.30;;;;;;;1.53;100.00;99264.22;5075199;28;20501;-70
2023/12/23 01:56:34;;;;;;;1.70;0.30;;;;;;;1.49;100.00;99273.84;5074750;28;20441;-70
2023/12/23 01:59:04;;;;;;;1.70;0.30;;;;;;;1.51;100.00;99266.38;5075207;28;20479;-69
2023/12/23 02:01:32;;;;;;;1.63;0.30;;;;;;;1.52;100.00;99273.28;5074812;28;20449;-70
2023/12/23 02:03:59;;;;;;;1.63;0.30;;;;;;;1.51;100.00;99279.72;5075007;28;20540;-70
2023/12/23 02:06:26;;;;;;;1.70;0.30;;;;;;;1.57;100.00;99275.94;5074642;28;20488;-70
2023/12/23 02:08:53;;;;;;;1.70;0.30;;;;;;;1.62;100.00;99275.91;5074951;28;20448;-70
2023/12/23 02:11:29;;;;;;;1.70;0.40;;;;;;;1.61;100.00;99271.66;5074629;28;20812;-70
2023/12/23 02:14:13;;;;;;;1.70;0.30;;;;;;;1.60;100.00;99279.94;5074688;28;20457;-70
2023/12/23 02:16:40;;;;;;;1.70;0.30;;;;;;;1.59;100.00;99287.13;5074302;28;20422;-70
2023/12/23 02:19:07;;;;;;;1.70;0.30;;;;;;;1.58;100.00;99285.53;5074839;28;20487;-70
2023/12/23 02:21:35;;;;;;;1.70;0.40;;;;;;;1.51;100.00;99299.19;5074223;28;20445;-70
2023/12/23 02:24:01;;;;;;;1.70;0.30;;;;;;;1.60;100.00;99294.06;5075265;28;20483;-71
2023/12/23 02:26:32;;;;;;;1.70;0.30;;;;;;;1.59;100.00;99297.78;5074727;28;20512;-70
2023/12/23 02:29:01;;;;;;;1.70;0.30;;;;;;;1.52;100.00;99300.78;5074344;28;20508;-71
2023/12/23 02:31:29;;;;;;;1.70;0.30;;;;;;;1.51;100.00;99303.72;5074221;28;20540;-70
2023/12/23 02:33:56;;;;;;;1.70;0.30;;;;;;;1.45;100.00;99310.13;5074100;28;20549;-72
2023/12/23 02:36:23;;;;;;;1.70;0.30;;;;;;;1.55;100.00;99311.97;5074458;28;20528;-71
2023/12/23 02:38:51;;;;;;;1.70;0.30;;;;;;;1.61;100.00;99309.00;5074435;28;20441;-72
2023/12/23 02:41:18;;;;;;;1.70;0.30;;;;;;;1.61;100.00;99314.34;5074075;28;20437;-72
2023/12/23 02:43:45;;;;;;;1.70;0.30;;;;;;;1.56;100.00;99311.69;5074449;28;20500;-72
2023/12/23 02:46:11;;;;;;;1.70;0.30;;;;;;;1.49;100.00;99319.19;5074183;28;20485;-72
2023/12/23 02:48:38;;;;;;;1.70;0.30;;;;;;;1.54;100.00;99329.84;5073950;28;20528;-72
2023/12/23 02:51:05;;;;;;;1.73;0.37;;;;;;;1.55;100.00;99342.13;5073880;28;20441;-72
2023/12/23 02:53:31;;;;;;;1.70;0.30;;;;;;;1.54;100.00;99340.50;5073744;28;20529;-72
2023/12/23 02:55:59;;;;;;;1.70;0.30;;;;;;;1.55;100.00;99341.31;5073826;28;20468;-72
2023/12/23 02:58:26;;;;;;;1.70;0.30;;;;;;;1.47;100.00;99348.03;5073941;28;20746;-71
2023/12/23 03:00:52;;;;;;;1.70;0.30;;;;;;;1.38;100.00;99349.66;5073768;28;20518;-72
2023/12/23 03:03:19;;;;;;;1.70;0.30;;;;;;;1.40;100.00;99358.97;5073717;28;20465;-72
2023/12/23 03:05:46;;;;;;;1.70;0.30;;;;;;;1.39;100.00;99361.91;5073221;28;21024;-71
2023/12/23 03:08:12;;;;;;;1.70;0.30;;;;;;;1.37;100.00;99366.69;5073315;28;20890;-71
2023/12/23 03:10:39;;;;;;;3.47;0.97;;;;;;;1.37;100.00;99364.03;5073835;28;20437;-71
2023/12/23 03:13:07;;;;;;;1.70;0.30;;;;;;;1.46;100.00;99349.06;5073953;28;20524;-72
2023/12/23 03:15:33;;;;;;;1.70;0.30;;;;;;;1.46;100.00;99355.22;5073517;28;20536;-72
2023/12/23 03:18:00;;;;;;;1.70;0.40;;;;;;;1.45;100.00;99364.28;5073439;28;20921;-72
2023/12/23 03:20:27;;;;;;;1.70;0.30;;;;;;;1.42;100.00;99372.84;5073221;28;20522;-71
2023/12/23 03:22:53;;;;;;;1.70;0.30;;;;;;;1.41;100.00;99365.88;5073433;28;20453;-72
2023/12/23 03:25:20;;;;;;;2.57;0.83;;;;;;;1.39;100.00;99378.72;5073327;28;20511;-71
2023/12/23 03:27:46;;;;;;;1.70;0.30;;;;;;;1.42;100.00;99377.38;5073477;28;20437;-72
2023/12/23 03:30:15;;;;;;;1.70;0.30;;;;;;;1.44;100.00;99380.56;5073539;28;20933;-71
2023/12/23 03:32:42;;;;;;;1.70;0.30;;;;;;;1.42;100.00;99386.19;5073476;28;20510;-72
2023/12/23 03:35:09;;;;;;;1.70;0.30;;;;;;;1.46;100.00;99391.75;5073394;28;20457;-71
2023/12/23 03:37:35;;;;;;;3.90;0.67;;;;;;;1.51;100.00;99405.91;5073450;28;20441;-69
2023/12/23 03:40:02;;;;;;;1.70;0.30;;;;;;;1.55;100.00;99392.00;5075625;28;20471;-71
2023/12/23 03:42:29;;;;;;;1.70;0.30;;;;;;;1.59;100.00;99401.06;5077930;28;20521;-71
2023/12/23 03:44:56;;;;;;;1.70;0.30;;;;;;;1.59;100.00;99398.41;5077254;28;20532;-71
2023/12/23 03:47:24;;;;;;;1.70;0.30;;;;;;;1.62;100.00;99406.66;5077137;28;20867;-71
2023/12/23 03:49:50;;;;;;;1.70;0.30;;;;;;;1.66;100.00;99407.72;5077307;28;20528;-71
2023/12/23 03:52:17;;;;;;;2.77;1.20;;;;;;;1.69;100.00;99409.88;5077082;28;20889;-71
2023/12/23 03:54:44;;;;;;;1.73;0.40;;;;;;;1.71;100.00;99410.38;5077180;28;20457;-71
2023/12/23 03:57:10;;;;;;;1.70;0.30;;;;;;;1.74;100.00;99409.84;5077252;28;20520;-71
2023/12/23 03:59:38;;;;;;;1.70;0.30;;;;;;;1.67;100.00;99417.31;5077316;28;20543;-71
2023/12/23 04:02:05;;;;;;;1.70;0.30;;;;;;;1.73;100.00;99418.13;5077102;28;20538;-72
2023/12/23 04:04:33;;;;;;;1.70;0.30;;;;;;;1.80;100.00;99415.16;5076716;28;21015;-72
2023/12/23 04:07:00;;;;;;;1.70;0.30;;;;;;;1.79;100.00;99411.69;5077008;28;20477;-72
2023/12/23 04:09:26;;;;;;;2.20;0.93;;;;;;;1.84;100.00;99418.91;5077005;28;20472;-71
2023/12/23 04:11:53;;;;;;;1.70;0.30;;;;;;;1.85;100.00;99415.16;5076972;28;20483;-71
2023/12/23 04:14:20;;;;;;;1.70;0.30;;;;;;;1.86;100.00;99424.75;5076904;28;20489;-71
2023/12/23 04:16:47;;;;;;;1.70;0.30;;;;;;;1.84;100.00;99425.03;5076514;28;20885;-71
2023/12/23 04:19:14;;;;;;;1.70;0.30;;;;;;;1.87;100.00;99426.38;5076436;28;20448;-71
2023/12/23 04:21:42;;;;;;;1.73;0.30;;;;;;;1.91;100.00;99430.09;5076369;28;20552;-71
2023/12/23 04:24:08;;;;;;;1.70;0.40;;;;;;;1.89;100.00;99432.22;5076632;28;20461;-71
2023/12/23 04:26:35;;;;;;;1.70;0.30;;;;;;;1.96;100.00;99427.41;5076550;28;20494;-71
2023/12/23 04:29:02;;;;;;;1.70;0.30;;;;;;;1.93;100.00;99420.72;5076618;28;20497;-71
2023/12/23 04:31:28;;;;;;;1.70;0.30;;;;;;;1.93;100.00;99419.94;5076373;28;20447;-71
2023/12/23 04:33:55;;;;;;;1.70;0.30;;;;;;;1.92;100.00;99427.16;5076386;28;20552;-70
2023/12/23 04:36:23;;;;;;;1.73;0.30;;;;;;;1.92;100.00;99431.69;5076458;28;20519;-70
2023/12/23 04:38:50;;;;;;;1.70;0.40;;;;;;;1.92;100.00;99429.81;5076139;28;20803;-70
2023/12/23 04:41:17;;;;;;;3.90;0.90;;;;;;;1.89;100.00;99426.88;5076456;28;20437;-69
2023/12/23 04:43:44;;;;;;;1.70;0.30;;;;;;;1.94;100.00;99442.88;5075968;28;20980;-69
2023/12/23 04:46:10;;;;;;;1.70;0.40;;;;;;;1.97;100.00;99439.69;5075838;28;21004;-69
2023/12/23 04:48:37;;;;;;;1.70;0.30;;;;;;;1.97;100.00;99429.00;5076575;28;20441;-69
2023/12/23 04:51:04;;;;;;;1.70;0.30;;;;;;;1.96;100.00;99432.75;5076024;28;20443;-69
2023/12/23 04:53:30;;;;;;;1.70;0.30;;;;;;;1.94;100.00;99430.31;5076067;28;20447;-69
2023/12/23 04:56:00;;;;;;;1.70;0.30;;;;;;;2.05;100.00;99423.09;5076401;28;20533;-69
2023/12/23 04:58:27;;;;;;;1.70;0.30;;;;;;;2.06;100.00;99413.22;5076285;28;20449;-69
2023/12/23 05:00:53;;;;;;;1.70;0.30;;;;;;;2.07;100.00;99401.44;5076051;28;20469;-69
2023/12/23 05:03:20;;;;;;;1.70;0.40;;;;;;;2.13;100.00;99393.16;5076377;28;20480;-71
2023/12/23 05:05:46;;;;;;;1.70;0.30;;;;;;;2.15;100.00;99415.03;5075767;28;20495;-71
2023/12/23 05:08:16;;;;;;;2.20;0.70;;;;;;;2.20;100.00;99420.34;5075832;28;20445;-73
2023/12/23 05:10:43;;;;;;;21.33;0.80;;;;;;;2.21;100.00;99424.63;5076360;28;20794;-71
2023/12/23 05:13:11;;;;;;;1.70;0.30;;;;;;;2.25;100.00;99436.34;5075444;28;21024;-69
2023/12/23 05:15:38;;;;;;;1.70;0.30;;;;;;;2.25;100.00;99419.53;5075631;28;20467;-70
2023/12/23 05:18:05;;;;;;;1.70;0.30;;;;;;;2.16;100.00;99410.47;5075697;28;20498;-70
2023/12/23 05:20:32;;;;;;;1.70;0.30;;;;;;;2.25;100.00;99417.66;5075405;28;21013;-70
2023/12/23 05:22:58;;;;;;;1.70;0.30;;;;;;;2.28;100.00;99410.97;5075307;28;20485;-70
2023/12/23 05:25:25;;;;;;;1.70;0.30;;;;;;;2.27;100.00;99418.19;5076000;28;20546;-70
2023/12/23 05:27:52;;;;;;;1.70;0.30;;;;;;;2.30;100.00;99418.69;5075528;28;20520;-69
2023/12/23 05:30:20;;;;;;;1.70;0.30;;;;;;;2.34;100.00;99411.72;5075184;28;20933;-70
2023/12/23 05:32:46;;;;;;;1.70;0.30;;;;;;;2.31;100.00;99412.28;5075770;28;20481;-69
2023/12/23 05:35:13;;;;;;;1.70;0.30;;;;;;;2.34;100.00;99415.19;5075003;28;20492;-69
2023/12/23 05:37:40;;;;;;;1.70;0.30;;;;;;;2.36;100.00;99426.44;5075339;28;20448;-69
2023/12/23 05:40:07;;;;;;;1.70;0.30;;;;;;;2.38;100.00;99439.50;5075570;28;20528;-69
2023/12/23 05:42:34;;;;;;;1.70;0.30;;;;;;;2.39;100.00;99419.72;5075233;28;20445;-70
2023/12/23 05:45:00;;;;;;;1.70;0.30;;;;;;;2.45;100.00;99421.31;5074779;28;20464;-69
2023/12/23 05:47:29;;;;;;;1.70;0.30;;;;;;;2.48;100.00;99412.75;5075194;28;20473;-69
2023/12/23 05:49:57;;;;;;;1.90;0.40;;;;;;;2.51;100.00;99412.16;5075434;28;20431;-69
2023/12/23 05:52:23;;;;;;;1.80;0.40;;;;;;;2.49;100.00;99427.69;5075023;28;20445;-70
2023/12/23 05:54:50;;;;;;;1.77;0.37;;;;;;;2.48;100.00;99418.88;5074882;28;20583;-69
2023/12/23 05:57:17;;;;;;;1.97;0.60;;;;;;;2.57;100.00;99424.44;5074943;28;20516;-68
2023/12/23 05:59:44;;;;;;;1.70;0.30;;;;;;;2.50;100.00;99422.06;5075276;28;20438;-69
2023/12/23 06:02:10;;;;;;;1.70;0.30;;;;;;;2.53;100.00;99429.53;5074292;28;20484;-69
2023/12/23 06:04:38;;;;;;;1.80;0.40;;;;;;;2.56;100.00;99425.50;5074442;28;20825;-70
2023/12/23 06:07:05;;;;;;;1.70;0.30;;;;;;;2.53;100.00;99418.84;5074298;28;21095;-69
2023/12/23 06:09:31;;;;;;;1.70;0.30;;;;;;;2.50;100.00;99418.59;5074819;28;20553;-69
2023/12/23 06:11:58;;;;;;;1.70;0.30;;;;;;;2.61;100.00;99411.31;5074625;28;20799;-69
2023/12/23 06:14:25;;;;;;;1.70;0.30;;;;;;;2.54;100.00;99408.94;5074614;28;20548;-69
2023/12/23 06:16:51;;;;;;;1.70;0.30;;;;;;;2.50;100.00;99406.03;5074584;28;20521;-69
2023/12/23 06:19:18;;;;;;;1.70;0.30;;;;;;;2.53;100.00;99413.50;5074516;28;21011;-69
2023/12/23 06:21:46;;;;;;;1.70;0.30;;;;;;;2.50;100.00;99399.88;5074248;28;20480;-69
2023/12/23 06:24:13;;;;;;;1.70;0.30;;;;;;;2.51;100.00;99407.63;5074349;28;20479;-69
2023/12/23 06:26:40;;;;;;;1.70;0.30;;;;;;;2.53;100.00;99391.31;5073936;28;20552;-69
2023/12/23 06:29:07;;;;;;;1.70;0.30;;;;;;;2.55;100.00;99391.84;5073975;28;20801;-70
2023/12/23 06:31:34;;;;;;;1.70;0.30;;;;;;;2.53;100.00;99380.63;5074227;28;20531;-69
2023/12/23 06:34:00;;;;;;;1.70;0.30;;;;;;;2.57;100.00;99386.19;5074447;28;20464;-69
2023/12/23 06:36:27;;;;;;;4.20;1.07;;;;;;;2.57;100.00;99387.03;5074133;28;20528;-69
2023/12/23 06:38:55;;;;;;;1.70;0.30;;;;;;;2.53;100.00;99380.63;5074084;28;20873;-70
2023/12/23 06:41:21;;;;;;;2.63;0.80;;;;;;;2.60;100.00;99375.75;5073765;28;20445;-69
2023/12/23 06:43:48;;;;;;;2.00;0.57;;;;;;;2.62;100.00;99380.84;5073997;28;20983;-69
2023/12/23 06:46:15;;;;;;;1.70;0.30;;;;;;;2.70;100.00;99385.56;5074141;28;20516;-69
2023/12/23 06:48:41;;;;;;;1.70;0.30;;;;;;;2.70;100.00;99378.38;5073620;28;20930;-69
2023/12/23 06:51:08;;;;;;;1.70;0.30;;;;;;;2.79;100.00;99375.91;5073927;28;20441;-69
2023/12/23 06:53:34;;;;;;;1.70;0.30;;;;;;;2.82;100.00;99396.72;5074191;28;20438;-69
2023/12/23 06:56:06;;;;;;;1.70;0.40;;;;;;;2.77;100.00;99388.75;5074204;28;20526;-69
2023/12/23 06:58:32;;;;;;;1.70;0.30;;;;;;;2.76;100.00;99385.28;5074189;28;20449;-69
2023/12/23 07:00:59;;;;;;;1.70;0.30;;;;;;;2.80;100.00;99382.84;5073836;28;20905;-69
2023/12/23 07:03:26;;;;;;;1.80;0.40;;;;;;;2.84;100.00;99391.13;5074046;28;20452;-69
2023/12/23 07:05:52;;;;;;;1.70;0.30;;;;;;;2.78;100.00;99383.09;5073822;28;20924;-69
2023/12/23 07:08:19;;;;;;;1.70;0.30;;;;;;;2.78;100.00;99384.97;5073705;28;20520;-69
2023/12/23 07:10:45;;;;;;;1.70;0.30;;;;;;;2.81;100.00;99386.31;5073701;28;20524;-69
2023/12/23 07:13:13;;;;;;;1.70;0.30;;;;;;;2.80;100.00;99374.81;5072967;28;20555;-69
2023/12/23 07:15:40;;;;;;;2.23;0.90;;;;;;;2.77;100.00;99370.81;5073440;28;20916;-69
2023/12/23 07:18:09;;;;;;;1.73;0.40;;;;;;;2.78;100.00;99367.06;5073964;28;20528;-69
2023/12/23 07:20:35;;;;;;;1.90;0.70;;;;;;;2.78;100.00;99364.38;5073601;28;20441;-69
2023/12/23 07:23:02;;;;;;;1.70;0.30;;;;;;;2.75;100.00;99378.34;5073130;28;20627;-70
2023/12/23 07:25:29;;;;;;;1.70;0.30;;;;;;;2.81;100.00;99380.97;5073916;28;20546;-70
2023/12/23 07:27:55;;;;;;;3.50;0.73;;;;;;;2.79;100.00;99359.88;5074063;28;20476;-70
2023/12/23 07:30:23;;;;;;;1.70;0.40;;;;;;;2.77;100.00;99362.00;5073116;28;20996;-70
2023/12/23 07:32:50;;;;;;;1.70;0.30;;;;;;;2.81;100.00;99349.69;5073754;28;20492;-70
2023/12/23 07:35:16;;;;;;;1.70;0.30;;;;;;;2.78;100.00;99351.03;5073306;28;20461;-70
2023/12/23 07:37:43;;;;;;;2.10;0.43;;;;;;;2.75;100.00;99343.59;5073392;28;20480;-71
2023/12/23 07:40:11;;;;;;;1.70;0.40;;;;;;;2.73;100.00;99340.38;5074020;28;20523;-71
2023/12/23 07:42:38;;;;;;;7.83;0.80;;;;;;;2.74;100.00;99358.00;5073340;28;20948;-72
2023/12/23 07:45:05;;;;;;;1.70;0.30;;;;;;;2.74;100.00;99347.31;5074805;28;20573;-73
2023/12/23 07:47:33;;;;;;;1.70;0.30;;;;;;;2.77;100.00;99351.31;5073920;28;20493;-72
2023/12/23 07:50:00;;;;;;;1.77;0.40;;;;;;;2.76;100.00;99349.72;5072988;28;20469;-72
2023/12/23 07:52:26;;;;;;;1.70;0.30;;;;;;;2.72;100.00;99338.78;5073194;28;20522;-71
2023/12/23 07:54:53;;;;;;;1.80;0.40;;;;;;;2.69;100.00;99333.97;5073178;28;20463;-72
2023/12/23 07:57:20;;;;;;;1.70;0.30;;;;;;;2.81;100.00;99336.31;5073291;28;20441;-69
2023/12/23 07:59:46;;;;;;;1.70;0.30;;;;;;;2.76;100.00;99336.34;5073469;28;20473;-70
2023/12/23 08:02:13;;;;;;;2.20;0.37;;;;;;;2.81;100.00;99330.97;5073199;28;20452;-72
2023/12/23 08:04:41;;;;;;;1.80;0.40;;;;;;;2.75;100.00;99337.44;5073203;28;20549;-73
2023/12/23 08:07:08;;;;;;;2.23;0.77;;;;;;;2.72;100.00;99340.66;5073335;28;20488;-76
2023/12/23 08:09:34;;;;;;;1.70;0.40;;;;;;;2.70;100.00;99340.94;5073785;28;20441;-74
2023/12/23 08:12:01;;;;;;;2.73;1.27;;;;;;;2.74;100.00;99336.63;5073291;28;20497;-74
2023/12/23 08:14:27;;;;;;;1.70;0.30;;;;;;;2.77;100.00;99349.44;5073775;28;20476;-76
2023/12/23 08:16:54;;;;;;;3.50;1.23;;;;;;;2.77;100.00;99336.06;5073004;28;20975;-71
2023/12/23 08:19:21;;;;;;;3.60;0.80;;;;;;;2.78;100.00;99340.31;5074385;28;20441;-73
2023/12/23 08:21:49;;;;;;;1.70;0.30;;;;;;;2.80;100.00;99344.63;5073445;28;20491;-73
2023/12/23 08:24:15;;;;;;;1.70;0.30;;;;;;;2.80;100.00;99342.75;5072583;28;21039;-71
2023/12/23 08:26:42;;;;;;;1.70;0.30;;;;;;;2.76;100.00;99345.16;5076208;28;20509;-76
2023/12/23 08:29:09;;;;;;;4.77;2.10;;;;;;;2.80;100.00;99344.63;5077568;28;20445;-72
2023/12/23 08:31:43;;;;;;;1.70;0.30;;;;;;;2.87;100.00;99347.75;5077125;28;20449;-72
2023/12/23 08:34:09;;;;;;;1.70;0.30;;;;;;;2.92;100.00;99350.38;5076979;28;20456;-72
2023/12/23 08:36:36;;;;;;;1.80;0.40;;;;;;;2.87;100.00;99345.06;5077442;28;20429;-73
2023/12/23 08:39:04;;;;;;;1.70;0.30;;;;;;;2.93;100.00;99346.66;5076878;28;20441;-72
2023/12/23 08:41:31;;;;;;;1.70;0.33;;;;;;;2.92;100.00;99348.53;5076310;28;20948;-72
2023/12/23 08:43:57;;;;;;;1.77;0.40;;;;;;;2.97;100.00;99345.81;5076404;28;20988;-73
2023/12/23 08:46:24;;;;;;;1.73;0.30;;;;;;;2.98;100.00;99352.75;5076263;28;20469;-74
2023/12/23 08:48:51;;;;;;;1.80;0.60;;;;;;;3.04;100.00;99348.13;5075935;28;20441;-74
2023/12/23 08:51:17;;;;;;;1.70;0.30;;;;;;;3.01;100.00;99344.16;5076236;28;20488;-74
2023/12/23 08:53:44;;;;;;;1.80;0.40;;;;;;;3.06;100.00;99353.22;5076157;28;20461;-74
2023/12/23 08:56:12;;;;;;;1.70;0.30;;;;;;;3.10;100.00;99359.56;5075847;28;20473;-74
2023/12/23 08:58:38;;;;;;;1.70;0.30;;;;;;;3.12;100.00;99346.72;5076210;28;20441;-74
2023/12/23 09:01:05;;;;;;;2.03;0.50;;;;;;;3.09;100.00;99355.31;5076087;28;20527;-74
2023/12/23 09:03:32;;;;;;;1.70;0.37;;;;;;;3.12;100.00;99358.22;5075939;28;20524;-75
2023/12/23 09:05:58;;;;;;;1.73;0.40;;;;;;;3.13;100.00;99359.81;5075641;28;20444;-74
2023/12/23 09:08:25;;;;;;;1.70;0.30;;;;;;;3.16;100.00;99363.81;5076231;28;20489;-74
2023/12/23 09:10:52;;;;;;;1.70;0.30;;;;;;;3.13;100.00;99357.13;5075873;28;20437;-73
2023/12/23 09:13:20;;;;;;;1.70;0.40;;;;;;;3.04;100.00;99364.97;5075538;28;20441;-74
2023/12/23 09:15:46;;;;;;;1.70;0.30;;;;;;;2.94;100.00;99361.59;5075745;28;20457;-73
2023/12/23 09:18:13;;;;;;;1.80;0.40;;;;;;;2.80;100.00;99376.69;5075851;28;20437;-73
2023/12/23 09:20:39;;;;;;;1.80;0.60;;;;;;;2.72;100.00;99370.88;5075688;28;20437;-73
2023/12/23 09:23:06;;;;;;;4.73;1.13;;;;;;;2.66;100.00;99366.66;5075412;28;20547;-73
2023/12/23 09:25:33;;;;;;;1.80;0.50;;;;;;;2.56;100.00;99374.72;5075688;28;20540;-73
2023/12/23 09:27:59;;;;;;;1.70;0.30;;;;;;;2.53;100.00;99372.63;5076026;28;20485;-73
2023/12/23 09:30:27;;;;;;;1.70;0.30;;;;;;;2.54;100.00;99368.88;5075755;28;20525;-73
2023/12/23 09:32:54;;;;;;;1.70;0.30;;;;;;;2.51;100.00;99364.84;5075673;28;20442;-73
2023/12/23 09:35:20;;;;;;;1.77;0.40;;;;;;;2.51;100.00;99358.72;5075764;28;20457;-72
2023/12/23 09:37:48;;;;;;;1.70;0.30;;;;;;;2.52;100.00;99362.97;5074920;28;20437;-72
2023/12/23 09:40:15;;;;;;;2.20;0.67;;;;;;;2.50;100.00;99365.16;5075549;28;21020;-73
2023/12/23 09:42:42;;;;;;;3.30;0.87;;;;;;;2.53;100.00;99362.72;5075032;28;20437;-73
2023/12/23 09:45:12;;;;;;;1.70;0.30;;;;;;;2.52;100.00;99373.66;5075061;28;20454;-73
2023/12/23 09:47:40;;;;;;;1.70;0.30;;;;;;;2.52;100.00;99371.00;5075464;28;20472;-70
2023/12/23 09:50:08;;;;;;;1.70;0.30;;;;;;;2.40;100.00;99370.56;5075831;28;20441;-71
2023/12/23 09:52:35;;;;;;;1.80;0.40;;;;;;;2.25;100.00;99376.78;5075322;28;20437;-73
2023/12/23 09:55:03;;;;;;;1.70;0.30;;;;;;;2.11;100.00;99373.91;5075126;28;20540;-73
2023/12/23 09:57:31;;;;;;;1.70;0.40;;;;;;;2.04;100.00;99373.44;5075018;28;20799;-73
2023/12/23 09:59:58;;;;;;;1.70;0.30;;;;;;;2.01;100.00;99371.31;5074948;28;20627;-73
2023/12/23 10:02:25;;;;;;;1.70;0.30;;;;;;;2.05;100.00;99369.69;5075194;28;20441;-73
2023/12/23 10:04:53;;;;;;;1.70;0.30;;;;;;;2.03;100.00;99369.94;5074740;28;20461;-73
2023/12/23 10:07:19;;;;;;;1.70;0.37;;;;;;;2.11;100.00;99363.22;5074697;28;21100;-73
2023/12/23 10:09:49;;;;;;;1.70;0.40;;;;;;;2.13;100.00;99365.66;5074646;28;20528;-73
2023/12/23 10:12:16;;;;;;;1.70;0.30;;;;;;;2.13;100.00;99369.13;5074584;28;20452;-73
2023/12/23 10:14:44;;;;;;;1.70;0.30;;;;;;;2.14;100.00;99360.03;5074245;28;20560;-73
2023/12/23 10:17:11;;;;;;;1.90;0.60;;;;;;;2.10;100.00;99363.50;5074527;28;20456;-73
2023/12/23 10:19:37;;;;;;;1.70;0.30;;;;;;;2.11;100.00;99354.44;5074189;28;20941;-73
2023/12/23 10:22:06;;;;;;;1.70;0.30;;;;;;;2.11;100.00;99349.88;5074085;28;20543;-73
2023/12/23 10:24:36;;;;;;;1.70;0.30;;;;;;;2.13;100.00;99357.63;5074334;28;20835;-73
2023/12/23 10:27:04;;;;;;;1.70;0.30;;;;;;;2.14;100.00;99356.56;5074474;28;20434;-73
2023/12/23 10:29:34;;;;;;;1.70;0.30;;;;;;;2.10;100.00;99347.50;5074548;28;20477;-73
2023/12/23 10:32:04;;;;;;;1.70;0.30;;;;;;;2.11;100.00;99351.75;5074415;28;20468;-73
2023/12/23 10:34:42;;;;;;;1.70;0.30;;;;;;;2.10;100.00;99356.31;5073746;28;20540;-73
2023/12/23 10:37:10;;;;;;;1.73;0.40;;;;;;;2.09;100.00;99349.38;5074076;28;20432;-73
2023/12/23 10:39:45;;;;;;;1.70;0.30;;;;;;;2.09;100.00;99354.72;5073726;28;20443;-73
2023/12/23 10:42:20;;;;;;;1.70;0.30;;;;;;;2.05;100.00;99353.66;5074504;28;20778;-73
2023/12/23 10:44:48;;;;;;;1.70;0.30;;;;;;;2.01;100.00;99342.72;5074068;28;20460;-73
2023/12/23 10:47:15;;;;;;;1.70;0.30;;;;;;;1.97;100.00;99344.34;5074081;28;20491;-73
2023/12/23 10:49:44;;;;;;;1.70;0.30;;;;;;;1.96;100.00;99356.09;5073639;28;20495;-73
2023/12/23 10:52:14;;;;;;;1.70;0.30;;;;;;;1.94;100.00;99349.44;5073990;28;20469;-74
2023/12/23 10:54:41;;;;;;;1.80;0.40;;;;;;;1.95;100.00;99351.84;5073942;28;20960;-73
2023/12/23 10:57:07;;;;;;;1.70;0.30;;;;;;;1.97;100.00;99354.22;5074339;28;20828;-73
2023/12/23 10:59:34;;;;;;;1.70;0.30;;;;;;;1.96;100.00;99357.97;5073505;28;21039;-73
2023/12/23 11:02:07;;;;;;;1.70;0.30;;;;;;;1.94;100.00;99360.09;5074229;28;20524;-73
2023/12/23 11:04:35;;;;;;;1.70;0.40;;;;;;;1.96;100.00;99361.44;5073686;28;20540;-73
2023/12/23 11:07:03;;;;;;;1.70;0.30;;;;;;;1.91;100.00;99366.81;5073663;28;20441;-73
2023/12/23 11:09:32;;;;;;;1.67;0.30;;;;;;;1.90;100.00;99357.19;5073582;28;20791;-73
2023/12/23 11:11:59;;;;;;;1.70;0.40;;;;;;;1.89;100.00;99360.94;5073798;28;20537;-73
2023/12/23 11:14:26;;;;;;;1.70;0.30;;;;;;;1.85;100.00;99362.56;5073550;28;20475;-73
2023/12/23 11:16:56;;;;;;;1.70;0.40;;;;;;;1.85;100.00;99372.44;5074146;28;20520;-74
2023/12/23 11:19:23;;;;;;;1.70;0.40;;;;;;;1.85;100.00;99378.56;5073674;28;20441;-73
2023/12/23 11:22:20;;;;;;;1.97;0.67;;;;;;;1.82;100.00;99379.13;5073182;28;20805;-73
2023/12/23 11:24:48;;;;;;;1.70;0.30;;;;;;;1.83;100.00;99379.94;5073988;28;20561;-73
2023/12/23 11:27:30;;;;;;;1.80;0.50;;;;;;;1.76;100.00;99372.19;5073492;28;20452;-73
2023/12/23 11:29:59;;;;;;;1.70;0.30;;;;;;;1.69;100.00;99385.84;5074221;28;20420;-73
2023/12/23 11:32:26;;;;;;;2.17;0.70;;;;;;;1.71;100.00;99389.03;5073547;28;20440;-73
2023/12/23 11:34:52;;;;;;;1.70;0.40;;;;;;;1.68;100.00;99373.56;5073410;28;20659;-73